createdAt,value
2022-10-05T00:00:20.287Z,9.89
2022-10-05T00:03:12.280Z,9.90
2022-10-05T00:05:40.387Z,9.91
2022-10-05T00:08:11.186Z,9.91
2022-10-05T00:10:41.737Z,9.91
2022-10-05T00:13:24.892Z,9.90
2022-10-05T00:16:09.731Z,9.92
2022-10-05T00:18:38.713Z,9.92
2022-10-05T00:21:19.830Z,9.93
2022-10-05T00:23:48.625Z,9.92
2022-10-05T00:26:27.913Z,9.92
2022-10-05T00:28:56.041Z,9.92
2022-10-05T00:31:30.371Z,9.92
2022-10-05T00:33:59.130Z,9.91
2022-10-05T00:36:27.294Z,9.91
2022-10-05T00:38:55.598Z,9.90
2022-10-05T00:42:01.495Z,9.89
2022-10-05T00:44:52.427Z,9.88
2022-10-05T00:47:46.488Z,9.87
2022-10-05T00:50:28.459Z,9.86
2022-10-05T00:53:18.461Z,9.86
2022-10-05T00:55:57.031Z,9.86
2022-10-05T00:58:49.557Z,9.85
2022-10-05T01:01:27.559Z,9.84
2022-10-05T01:04:18.760Z,9.85
2022-10-05T01:06:58.603Z,9.85
2022-10-05T01:09:31.206Z,9.84
2022-10-05T01:12:17.834Z,9.84
2022-10-05T01:15:13.974Z,9.84
2022-10-05T01:18:17.619Z,9.85
2022-10-05T01:21:16.679Z,9.86
2022-10-05T01:24:06.566Z,9.87
2022-10-05T01:27:12.017Z,9.88
2022-10-05T01:29:54.993Z,9.89
2022-10-05T01:32:29.479Z,9.89
2022-10-05T01:35:11.592Z,9.89
2022-10-05T01:38:04.023Z,9.91
2022-10-05T01:41:15.340Z,9.91
2022-10-05T01:43:48.511Z,9.93
2022-10-05T01:46:30.313Z,9.93
2022-10-05T01:49:25.202Z,9.93
2022-10-05T01:52:19.317Z,9.94
2022-10-05T01:55:13.079Z,9.94
2022-10-05T01:58:00.889Z,9.95
2022-10-05T02:00:32.141Z,9.96
2022-10-05T02:03:13.737Z,9.96
2022-10-05T02:05:58.823Z,9.96
2022-10-05T02:09:08.539Z,9.96
2022-10-05T02:11:39.818Z,9.95
2022-10-05T02:14:13.607Z,9.95
2022-10-05T02:16:51.601Z,9.95
2022-10-05T02:19:48.938Z,9.93
2022-10-05T02:22:24.115Z,9.91
2022-10-05T02:24:57.756Z,9.88
2022-10-05T02:27:34.654Z,9.86
2022-10-05T02:30:07.351Z,9.84
2022-10-05T02:32:47.845Z,9.81
2022-10-05T02:35:18.921Z,9.80
2022-10-05T02:38:14.001Z,9.78
2022-10-05T02:41:01.065Z,9.76
2022-10-05T02:43:48.706Z,9.75
2022-10-05T02:46:20.233Z,9.73
2022-10-05T02:48:57.173Z,9.71
2022-10-05T02:51:48.727Z,9.70
2022-10-05T02:55:02.282Z,9.67
2022-10-05T02:57:33.391Z,9.66
2022-10-05T03:00:13.395Z,9.64
2022-10-05T03:02:53.179Z,9.63
2022-10-05T03:05:32.103Z,9.61
2022-10-05T03:08:09.828Z,9.60
2022-10-05T03:10:46.783Z,9.59
2022-10-05T03:13:33.455Z,9.59
2022-10-05T03:16:10.176Z,9.59
2022-10-05T03:18:44.388Z,9.58
2022-10-05T03:21:30.529Z,9.57
2022-10-05T03:24:08.326Z,9.57
2022-10-05T03:26:49.300Z,9.56
2022-10-05T03:29:47.277Z,9.55
2022-10-05T03:32:30.623Z,9.55
2022-10-05T03:35:13.505Z,9.56
2022-10-05T03:38:00.585Z,9.56
2022-10-05T03:41:05.196Z,9.55
2022-10-05T03:44:02.648Z,9.57
2022-10-05T03:46:55.783Z,9.58
2022-10-05T03:49:33.280Z,9.58
2022-10-05T03:52:17.857Z,9.59
2022-10-05T03:54:51.467Z,9.58
2022-10-05T03:57:29.394Z,9.59
2022-10-05T04:00:07.058Z,9.58
2022-10-05T04:03:11.516Z,9.59
2022-10-05T04:05:48.892Z,9.59
2022-10-05T04:08:34.958Z,9.59
2022-10-05T04:11:21.692Z,9.58
2022-10-05T04:13:56.722Z,9.58
2022-10-05T04:16:34.856Z,9.58
2022-10-05T04:19:19.450Z,9.58
2022-10-05T04:22:20.476Z,9.58
2022-10-05T04:25:17.223Z,9.59
2022-10-05T04:27:57.434Z,9.60
2022-10-05T04:30:25.886Z,9.60
2022-10-05T04:32:58.784Z,9.61
2022-10-05T04:36:03.912Z,9.61
2022-10-05T04:39:16.298Z,9.61
2022-10-05T04:42:04.623Z,9.61
2022-10-05T04:44:47.896Z,9.61
2022-10-05T04:47:25.284Z,9.61
2022-10-05T04:50:16.438Z,9.61
2022-10-05T04:53:19.725Z,9.60
2022-10-05T04:56:00.604Z,9.58
2022-10-05T04:58:36.771Z,9.57
2022-10-05T05:01:38.044Z,9.56
2022-10-05T05:04:41.654Z,9.54
2022-10-05T05:07:29.212Z,9.53
2022-10-05T05:10:03.301Z,9.53
2022-10-05T05:12:50.298Z,9.52
2022-10-05T05:15:47.270Z,9.51
2022-10-05T05:18:37.513Z,9.51
2022-10-05T05:21:41.068Z,9.53
2022-10-05T05:24:25.250Z,9.54
2022-10-05T05:27:23.119Z,9.55
2022-10-05T05:30:16.191Z,9.57
2022-10-05T05:33:01.614Z,9.59
2022-10-05T05:36:07.890Z,9.61
2022-10-05T05:38:43.128Z,9.63
2022-10-05T05:41:25.052Z,9.65
2022-10-05T05:44:11.721Z,9.67
2022-10-05T05:47:22.222Z,9.70
2022-10-05T05:50:15.356Z,9.73
2022-10-05T05:52:47.155Z,9.76
2022-10-05T05:55:52.086Z,9.78
2022-10-05T05:58:29.339Z,9.81
2022-10-05T06:01:33.693Z,9.83
2022-10-05T06:04:09.412Z,9.85
2022-10-05T06:06:43.032Z,9.88
2022-10-05T06:09:38.214Z,9.90
2022-10-05T06:12:40.923Z,9.92
2022-10-05T06:15:54.316Z,9.97
2022-10-05T06:18:24.105Z,10.01
2022-10-05T06:21:06.999Z,10.04
2022-10-05T06:24:10.414Z,10.07
2022-10-05T06:27:02.444Z,10.11
2022-10-05T06:29:59.121Z,10.15
2022-10-05T06:32:36.032Z,10.19
2022-10-05T06:35:07.375Z,10.23
2022-10-05T06:38:01.601Z,10.28
2022-10-05T06:40:51.149Z,10.33
2022-10-05T06:43:30.915Z,10.38
2022-10-05T06:46:49.511Z,10.45
2022-10-05T06:49:51.988Z,10.51
2022-10-05T06:53:09.178Z,10.59
2022-10-05T06:55:51.871Z,10.66
2022-10-05T06:58:51.005Z,10.72
2022-10-05T07:01:20.837Z,10.79
2022-10-05T07:03:55.800Z,10.85
2022-10-05T07:06:29.741Z,10.91
2022-10-05T07:09:31.329Z,10.97
2022-10-05T07:12:12.343Z,11.04
2022-10-05T07:15:03.924Z,11.10
2022-10-05T07:17:59.173Z,11.18
2022-10-05T07:21:05.049Z,11.25
2022-10-05T07:23:44.797Z,11.31
2022-10-05T07:26:20.808Z,11.38
2022-10-05T07:29:10.825Z,11.44
2022-10-05T07:31:39.248Z,11.52
2022-10-05T07:34:15.481Z,11.61
2022-10-05T07:37:29.090Z,11.70
2022-10-05T07:40:09.949Z,11.82
2022-10-05T07:42:56.673Z,11.92
2022-10-05T07:45:31.101Z,12.01
2022-10-05T07:48:13.172Z,12.10
2022-10-05T07:51:00.032Z,12.18
2022-10-05T07:53:43.296Z,12.26
2022-10-05T07:56:28.015Z,12.35
2022-10-05T07:59:03.321Z,12.42
2022-10-05T08:01:43.215Z,12.49
2022-10-05T08:04:40.726Z,12.56
2022-10-05T08:07:16.001Z,12.64
2022-10-05T08:09:52.979Z,12.72
2022-10-05T08:12:41.543Z,12.80
2022-10-05T08:15:16.724Z,12.89
2022-10-05T08:18:02.547Z,12.96
2022-10-05T08:20:39.005Z,13.03
2022-10-05T08:23:38.909Z,13.11
2022-10-05T08:26:13.929Z,13.20
2022-10-05T08:28:52.512Z,13.27
2022-10-05T08:31:25.356Z,13.35
2022-10-05T08:34:22.266Z,13.40
2022-10-05T08:37:02.777Z,13.46
2022-10-05T08:40:13.046Z,13.52
2022-10-05T08:42:44.407Z,13.57
2022-10-05T08:45:34.280Z,13.61
2022-10-05T08:48:14.323Z,13.66
2022-10-05T08:51:13.686Z,13.70
2022-10-05T08:53:56.888Z,13.74
2022-10-05T08:56:42.039Z,13.78
2022-10-05T08:59:37.860Z,13.83
2022-10-05T09:02:13.181Z,13.88
2022-10-05T09:05:11.567Z,13.92
2022-10-05T09:08:15.048Z,13.97
2022-10-05T09:10:54.934Z,14.03
2022-10-05T09:13:47.902Z,14.09
2022-10-05T09:16:37.523Z,14.15
2022-10-05T09:19:06.441Z,14.20
2022-10-05T09:21:57.720Z,14.25
2022-10-05T09:24:49.025Z,14.31
2022-10-05T09:27:19.092Z,14.37
2022-10-05T09:30:02.694Z,14.42
2022-10-05T09:33:08.807Z,14.49
2022-10-05T09:36:00.619Z,14.55
2022-10-05T09:38:54.006Z,14.61
2022-10-05T09:41:44.279Z,14.66
2022-10-05T09:44:41.695Z,14.70
2022-10-05T09:47:47.187Z,14.75
2022-10-05T09:50:38.239Z,14.81
2022-10-05T09:53:18.226Z,14.86
2022-10-05T09:55:57.960Z,14.91
2022-10-05T09:58:42.629Z,14.96
2022-10-05T10:01:34.055Z,15.02
2022-10-05T10:04:35.912Z,15.06
2022-10-05T10:07:41.452Z,15.12
2022-10-05T10:10:31.856Z,15.17
2022-10-05T10:13:39.472Z,15.21
2022-10-05T10:16:16.936Z,15.28
2022-10-05T10:19:32.447Z,15.34
2022-10-05T10:22:27.484Z,15.46
2022-10-05T10:25:06.025Z,15.62
2022-10-05T10:27:54.350Z,15.78
2022-10-05T10:30:52.051Z,15.89
2022-10-05T10:33:57.138Z,16.01
2022-10-05T10:36:40.241Z,16.11
2022-10-05T10:39:29.640Z,16.22
2022-10-05T10:42:35.474Z,16.35
2022-10-05T10:45:28.803Z,16.51
2022-10-05T10:48:05.368Z,16.61
2022-10-05T10:50:49.728Z,16.69
2022-10-05T10:53:32.971Z,16.76
2022-10-05T10:56:14.245Z,16.80
2022-10-05T10:58:57.386Z,16.81
2022-10-05T11:01:29.776Z,16.85
2022-10-05T11:04:19.134Z,16.88
2022-10-05T11:07:06.135Z,16.89
2022-10-05T11:10:01.041Z,16.89
2022-10-05T11:13:01.186Z,16.90
2022-10-05T11:16:04.101Z,16.92
2022-10-05T11:18:51.262Z,16.93
2022-10-05T11:22:17.267Z,16.96
2022-10-05T11:25:15.682Z,16.99
2022-10-05T11:28:20.037Z,17.01
2022-10-05T11:30:54.371Z,17.03
2022-10-05T11:33:44.285Z,17.05
2022-10-05T11:36:21.620Z,17.07
2022-10-05T11:39:22.648Z,17.07
2022-10-05T11:42:09.321Z,17.03
2022-10-05T11:45:00.190Z,17.00
2022-10-05T11:47:33.423Z,16.96
2022-10-05T11:50:17.487Z,16.95
2022-10-05T11:53:22.997Z,16.93
2022-10-05T11:56:22.085Z,16.91
2022-10-05T11:59:15.059Z,16.89
2022-10-05T12:02:08.307Z,16.87
2022-10-05T12:04:40.621Z,16.87
2022-10-05T12:07:20.896Z,16.86
2022-10-05T12:10:17.102Z,16.85
2022-10-05T12:12:45.390Z,16.84
2022-10-05T12:15:27.147Z,16.82
2022-10-05T12:18:01.166Z,16.83
2022-10-05T12:20:40.905Z,16.83
2022-10-05T12:23:30.904Z,16.83
2022-10-05T12:26:04.468Z,16.84
2022-10-05T12:28:42.275Z,16.86
2022-10-05T12:31:19.541Z,16.87
2022-10-05T12:34:15.724Z,16.88
2022-10-05T12:37:08.210Z,16.87
2022-10-05T12:39:46.546Z,16.87
2022-10-05T12:42:30.704Z,16.88
2022-10-05T12:45:16.732Z,16.88
2022-10-05T12:48:12.774Z,16.89
2022-10-05T12:50:57.719Z,16.90
2022-10-05T12:53:37.267Z,16.89
2022-10-05T12:56:26.682Z,16.89
2022-10-05T12:59:22.541Z,16.90
2022-10-05T13:01:59.631Z,16.92
2022-10-05T13:04:52.145Z,16.93
2022-10-05T13:07:38.939Z,16.95
2022-10-05T13:10:07.552Z,16.98
2022-10-05T13:12:58.191Z,17.00
2022-10-05T13:15:30.994Z,17.03
2022-10-05T13:18:20.190Z,17.06
2022-10-05T13:21:12.198Z,17.07
2022-10-05T13:24:14.806Z,17.08
2022-10-05T13:26:49.884Z,17.08
2022-10-05T13:29:35.064Z,17.08
2022-10-05T13:32:12.759Z,17.08
2022-10-05T13:35:11.267Z,17.07
2022-10-05T13:37:53.095Z,17.05
2022-10-05T13:40:25.076Z,17.03
2022-10-05T13:43:04.238Z,17.03
2022-10-05T13:46:07.333Z,17.02
2022-10-05T13:49:01.632Z,17.00
2022-10-05T13:52:08.964Z,16.99
2022-10-05T13:54:42.137Z,16.96
2022-10-05T13:57:28.631Z,16.95
2022-10-05T14:00:27.017Z,16.92
2022-10-05T14:02:58.003Z,16.91
2022-10-05T14:05:27.824Z,16.89
2022-10-05T14:08:02.854Z,16.88
2022-10-05T14:10:37.603Z,16.86
2022-10-05T14:13:21.010Z,16.84
2022-10-05T14:16:13.839Z,16.84
2022-10-05T14:19:04.070Z,16.82
2022-10-05T14:21:43.345Z,16.81
2022-10-05T14:24:47.557Z,16.79
2022-10-05T14:27:31.242Z,16.78
2022-10-05T14:30:18.561Z,16.76
2022-10-05T14:33:12.966Z,16.73
2022-10-05T14:35:50.847Z,16.71
2022-10-05T14:38:21.534Z,16.69
2022-10-05T14:41:06.550Z,16.68
2022-10-05T14:43:35.498Z,16.67
2022-10-05T14:46:23.225Z,16.66
2022-10-05T14:49:23.177Z,16.65
2022-10-05T14:51:53.905Z,16.62
2022-10-05T14:54:24.075Z,16.59
2022-10-05T14:56:58.575Z,16.56
2022-10-05T15:00:00.513Z,16.53
2022-10-05T15:02:32.224Z,16.49
2022-10-05T15:05:17.562Z,16.46
2022-10-05T15:07:50.336Z,16.43
2022-10-05T15:10:33.413Z,16.40
2022-10-05T15:13:22.637Z,16.36
2022-10-05T15:15:55.435Z,16.32
2022-10-05T15:18:49.094Z,16.29
2022-10-05T15:21:32.424Z,16.24
2022-10-05T15:24:05.666Z,16.22
2022-10-05T15:26:47.505Z,16.19
2022-10-05T15:29:18.876Z,16.16
2022-10-05T15:32:14.868Z,16.13
2022-10-05T15:34:56.791Z,16.09
2022-10-05T15:37:33.232Z,16.06
2022-10-05T15:40:14.873Z,16.03
2022-10-05T15:42:43.914Z,15.99
2022-10-05T15:45:24.136Z,15.95
2022-10-05T15:48:20.301Z,15.90
2022-10-05T15:50:57.514Z,15.85
2022-10-05T15:53:46.081Z,15.81
2022-10-05T15:56:30.225Z,15.79
2022-10-05T15:59:19.039Z,15.74
2022-10-05T16:01:56.847Z,15.70
2022-10-05T16:05:07.810Z,15.68
2022-10-05T16:08:04.682Z,15.64
2022-10-05T16:10:37.157Z,15.61
2022-10-05T16:13:28.897Z,15.58
2022-10-05T16:16:21.080Z,15.54
2022-10-05T16:19:03.167Z,15.50
2022-10-05T16:22:16.640Z,15.46
2022-10-05T16:25:05.921Z,15.43
2022-10-05T16:27:43.055Z,15.39
2022-10-05T16:30:16.807Z,15.35
2022-10-05T16:33:03.469Z,15.33
2022-10-05T16:36:03.365Z,15.30
2022-10-05T16:38:47.083Z,15.28
2022-10-05T16:41:47.751Z,15.26
2022-10-05T16:44:34.076Z,15.24
2022-10-05T16:47:40.715Z,15.24
2022-10-05T16:50:15.642Z,15.23
2022-10-05T16:52:47.135Z,15.22
2022-10-05T16:55:26.321Z,15.20
2022-10-05T16:57:57.128Z,15.19
2022-10-05T17:00:40.224Z,15.18
2022-10-05T17:03:21.598Z,15.17
2022-10-05T17:06:20.611Z,15.16
2022-10-05T17:09:10.396Z,15.16
2022-10-05T17:11:57.217Z,15.18
2022-10-05T17:14:40.862Z,15.18
2022-10-05T17:17:31.744Z,15.18
2022-10-05T17:20:18.846Z,15.18
2022-10-05T17:22:59.667Z,15.18
2022-10-05T17:25:54.398Z,15.17
2022-10-05T17:28:37.447Z,15.16
2022-10-05T17:31:13.930Z,15.16
2022-10-05T17:34:00.146Z,15.14
2022-10-05T17:36:49.915Z,15.13
2022-10-05T17:39:43.955Z,15.11
2022-10-05T17:42:30.084Z,15.09
2022-10-05T17:45:02.574Z,15.08
2022-10-05T17:47:55.507Z,15.07
2022-10-05T17:51:05.337Z,15.06
2022-10-05T17:54:01.530Z,15.05
2022-10-05T17:56:34.023Z,15.04
2022-10-05T17:59:09.403Z,15.02
2022-10-05T18:01:40.856Z,15.01
2022-10-05T18:04:12.067Z,15.00
2022-10-05T18:06:52.791Z,14.98
2022-10-05T18:09:24.856Z,14.96
2022-10-05T18:11:55.797Z,14.93
2022-10-05T18:14:25.133Z,14.92
2022-10-05T18:17:10.151Z,14.91
2022-10-05T18:19:39.702Z,14.90
2022-10-05T18:22:15.726Z,14.91
2022-10-05T18:24:53.280Z,14.92
2022-10-05T18:27:40.022Z,14.93
2022-10-05T18:30:23.360Z,14.94
2022-10-05T18:32:54.593Z,14.93
2022-10-05T18:35:48.183Z,14.93
2022-10-05T18:38:43.849Z,14.93
2022-10-05T18:41:36.281Z,14.92
2022-10-05T18:44:18.810Z,14.91
2022-10-05T18:47:23.903Z,14.90
2022-10-05T18:50:16.963Z,14.89
2022-10-05T18:53:04.663Z,14.88
2022-10-05T18:55:42.851Z,14.86
2022-10-05T18:58:19.246Z,14.85
2022-10-05T19:01:23.505Z,14.84
2022-10-05T19:04:27.285Z,14.85
2022-10-05T19:07:27.965Z,14.84
2022-10-05T19:10:18.695Z,14.82
2022-10-05T19:12:55.076Z,14.82
2022-10-05T19:15:50.848Z,14.81
2022-10-05T19:18:42.623Z,14.81
2022-10-05T19:21:48.515Z,14.81
2022-10-05T19:24:32.594Z,14.80
2022-10-05T19:27:26.580Z,14.79
2022-10-05T19:30:23.149Z,14.79
2022-10-05T19:32:57.304Z,14.77
2022-10-05T19:35:42.681Z,14.77
2022-10-05T19:38:32.915Z,14.75
2022-10-05T19:41:30.180Z,14.73
2022-10-05T19:44:27.575Z,14.70
2022-10-05T19:47:15.193Z,14.68
2022-10-05T19:49:58.764Z,14.67
2022-10-05T19:52:31.257Z,14.66
2022-10-05T19:55:14.145Z,14.64
2022-10-05T19:57:54.018Z,14.63
2022-10-05T20:00:26.869Z,14.61
2022-10-05T20:03:12.141Z,14.59
2022-10-05T20:05:41.161Z,14.57
2022-10-05T20:08:17.726Z,14.55
2022-10-05T20:11:19.493Z,14.52
2022-10-05T20:14:10.226Z,14.49
2022-10-05T20:16:57.189Z,14.47
2022-10-05T20:19:50.065Z,14.45
2022-10-05T20:22:25.257Z,14.44
2022-10-05T20:24:56.468Z,14.42
2022-10-05T20:27:52.165Z,14.39
2022-10-05T20:30:25.815Z,14.36
2022-10-05T20:32:59.674Z,14.34
2022-10-05T20:35:30.957Z,14.33
2022-10-05T20:38:12.303Z,14.33
2022-10-05T20:40:40.380Z,14.32
2022-10-05T20:43:30.372Z,14.31
2022-10-05T20:45:58.454Z,14.31
2022-10-05T20:48:30.059Z,14.30
2022-10-05T20:51:01.872Z,14.29
2022-10-05T20:53:29.963Z,14.29
2022-10-05T20:56:02.746Z,14.29
2022-10-05T20:58:31.175Z,14.28
2022-10-05T21:01:18.251Z,14.28
2022-10-05T21:03:46.859Z,14.26
2022-10-05T21:06:15.861Z,14.25
2022-10-05T21:08:46.624Z,14.23
2022-10-05T21:11:14.706Z,14.22
2022-10-05T21:13:44.939Z,14.20
2022-10-05T21:16:19.039Z,14.18
2022-10-05T21:18:48.896Z,14.16
2022-10-05T21:21:17.914Z,14.13
2022-10-05T21:23:47.631Z,14.10
2022-10-05T21:26:16.126Z,14.08
2022-10-05T21:28:44.780Z,14.06
2022-10-05T21:31:13.259Z,14.03
2022-10-05T21:33:41.666Z,14.02
2022-10-05T21:36:10.009Z,13.98
2022-10-05T21:38:38.913Z,13.96
2022-10-05T21:41:15.642Z,13.92
2022-10-05T21:43:44.234Z,13.88
2022-10-05T21:46:16.767Z,13.85
2022-10-05T21:48:45.008Z,13.82
2022-10-05T21:51:19.085Z,13.79
2022-10-05T21:53:52.364Z,13.75
2022-10-05T21:56:23.708Z,13.70
2022-10-05T21:58:52.663Z,13.67
2022-10-05T22:01:22.878Z,13.63
2022-10-05T22:03:57.074Z,13.60
2022-10-05T22:06:25.277Z,13.55
2022-10-05T22:08:53.147Z,13.51
2022-10-05T22:11:21.047Z,13.48
2022-10-05T22:13:51.651Z,13.45
2022-10-05T22:16:22.495Z,13.41
2022-10-05T22:18:50.967Z,13.37
2022-10-05T22:21:21.205Z,13.34
2022-10-05T22:23:49.491Z,13.30
2022-10-05T22:26:21.294Z,13.28
2022-10-05T22:28:52.617Z,13.25
2022-10-05T22:31:20.858Z,13.22
2022-10-05T22:33:48.814Z,13.19
2022-10-05T22:36:16.916Z,13.15
2022-10-05T22:38:46.690Z,13.11
2022-10-05T22:41:18.455Z,13.09
2022-10-05T22:43:50.961Z,13.06
2022-10-05T22:46:20.497Z,13.01
2022-10-05T22:48:48.444Z,12.99
2022-10-05T22:51:16.559Z,12.96
2022-10-05T22:53:44.633Z,12.93
2022-10-05T22:56:13.984Z,12.91
2022-10-05T22:58:43.224Z,12.88
2022-10-05T23:01:14.341Z,12.84
2022-10-05T23:03:43.020Z,12.82
2022-10-05T23:06:19.482Z,12.80
2022-10-05T23:08:48.108Z,12.78
2022-10-05T23:11:25.991Z,12.76
2022-10-05T23:13:58.801Z,12.74
2022-10-05T23:16:29.274Z,12.72
2022-10-05T23:18:57.862Z,12.70
2022-10-05T23:21:29.324Z,12.67
2022-10-05T23:23:57.276Z,12.63
2022-10-05T23:26:26.494Z,12.61
2022-10-05T23:28:54.375Z,12.59
2022-10-05T23:31:29.359Z,12.57
2022-10-05T23:33:57.875Z,12.56
2022-10-05T23:36:31.569Z,12.55
2022-10-05T23:39:00.243Z,12.55
2022-10-05T23:41:28.261Z,12.54
2022-10-05T23:43:56.255Z,12.54
2022-10-05T23:46:24.524Z,12.55
2022-10-05T23:48:53.380Z,12.55
2022-10-05T23:51:21.534Z,12.57
2022-10-05T23:53:49.570Z,12.60
2022-10-05T23:56:17.639Z,12.62
2022-10-05T23:58:45.665Z,12.65
